Time;durP1;ratioP1;P1;durP2;ratioP2;P2;SDS_P1;SDS_P2;PMS_P1;PMS_P2;Temp;Humidity;BMP_temperature;BMP_pressure;BME280_temperature;BME280_humidity;BME280_pressure;Samples;Min_cycle;Max_cycle;Signal;HPM_P1;HPM_P2
2023/07/06 00:01:58;;;;;;;0.90;0.55;;;21.80;60.30;;;;;;5096621;28;20031;-80
2023/07/06 00:04:24;;;;;;;;;;;21.80;59.60;;;;;;5114179;28;20032;-81
2023/07/06 00:06:50;;;;;;;0.77;0.60;;;21.80;59.50;;;;;;5113351;28;19915;-83
2023/07/06 00:09:16;;;;;;;0.70;0.50;;;21.80;58.80;;;;;;5114524;28;20426;-81
2023/07/06 00:11:44;;;;;;;0.20;0.20;;;21.70;58.40;;;;;;5112986;28;20031;-84
2023/07/06 00:14:12;;;;;;;0.82;0.55;;;21.70;57.90;;;;;;5096670;28;20039;-82
2023/07/06 00:16:41;;;;;;;0.22;0.22;;;21.70;57.50;;;;;;5113118;28;20110;-84
2023/07/06 00:19:27;;;;;;;0.45;0.45;;;21.70;57.20;;;;;;5096537;28;20032;-81
2023/07/06 00:21:53;;;;;;;0.20;0.20;;;21.60;57.30;;;;;;5113291;28;20361;-81
2023/07/06 00:24:19;;;;;;;0.20;0.20;;;21.70;57.00;;;;;;5113314;28;20107;-81
2023/07/06 00:26:45;;;;;;;0.15;0.15;;;21.70;56.80;;;;;;5113094;28;20031;-81
2023/07/06 00:29:11;;;;;;;;;;;21.70;56.60;;;;;;5113981;28;20035;-83
2023/07/06 00:31:50;;;;;;;0.47;0.20;;;21.70;56.60;;;;;;5112653;28;19922;-82
2023/07/06 00:34:18;;;;;;;0.10;0.10;;;21.70;56.20;;;;;;5097823;28;20548;-81
2023/07/06 00:36:47;;;;;;;0.10;0.10;;;21.60;56.20;;;;;;5096049;28;20028;-84
2023/07/06 00:39:13;;;;;;;0.28;0.20;;;21.60;56.20;;;;;;5113093;28;20027;-81
2023/07/06 00:41:39;;;;;;;;;;;21.60;56.20;;;;;;5113429;28;20031;-83
2023/07/06 00:44:26;;;;;;;0.10;0.10;;;21.60;56.20;;;;;;5096126;28;19951;-83
2023/07/06 00:46:52;;;;;;;0.38;0.20;;;21.60;55.50;;;;;;5113875;28;20102;-83
2023/07/06 00:49:18;;;;;;;;;;;21.70;56.20;;;;;;5113448;28;20032;-84
2023/07/06 00:51:44;;;;;;;0.10;0.10;;;21.70;56.40;;;;;;5112221;28;20419;-82
2023/07/06 00:54:16;;;;;;;0.25;0.25;;;21.60;56.60;;;;;;5113052;28;20196;-83
2023/07/06 00:56:45;;;;;;;0.17;0.17;;;21.60;56.60;;;;;;5095673;28;20031;-85
2023/07/06 00:59:16;;;;;;;0.10;0.10;;;21.60;56.60;;;;;;5113091;28;20036;-82
2023/07/06 01:01:45;;;;;;;0.20;0.20;;;21.60;56.50;;;;;;5112720;28;20055;-85
2023/07/06 01:04:16;;;;;;;1.00;0.35;;;21.60;56.60;;;;;;5112741;28;20106;-86
2023/07/06 01:06:49;;;;;;;0.15;0.15;;;21.60;56.60;;;;;;5095522;28;20032;-83
2023/07/06 01:12:02;;;;;;;0.50;0.50;;;21.60;56.60;;;;;;5112658;28;20469;-84
2023/07/06 01:14:30;;;;;;;0.38;0.38;;;21.60;56.10;;;;;;5112814;28;20493;-83
2023/07/06 01:17:39;;;;;;;0.30;0.20;;;21.60;56.40;;;;;;5112574;28;20063;-81
2023/07/06 01:20:21;;;;;;;0.15;0.13;;;21.60;56.50;;;;;;5112250;28;20023;-83
2023/07/06 01:23:25;;;;;;;0.20;0.20;;;21.60;56.60;;;;;;5095771;28;20031;-82
2023/07/06 01:26:34;;;;;;;0.20;0.15;;;21.60;56.40;;;;;;5113497;28;20042;-84
2023/07/06 01:29:30;;;;;;;0.10;0.10;;;21.60;56.30;;;;;;5113842;28;20035;-86
2023/07/06 01:32:04;;;;;;;0.73;0.63;;;21.60;56.30;;;;;;5112385;28;20036;-83
2023/07/06 01:35:08;;;;;;;0.10;0.10;;;21.50;56.50;;;;;;5112556;28;20043;-81
2023/07/06 01:37:53;;;;;;;0.15;0.15;;;21.60;56.50;;;;;;5112461;28;20408;-84
2023/07/06 01:40:19;;;;;;;0.25;0.25;;;21.50;56.60;;;;;;5112172;28;20031;-82
2023/07/06 01:42:45;;;;;;;;;;;21.50;56.60;;;;;;5113019;28;20109;-83
2023/07/06 01:45:16;;;;;;;1.05;0.40;;;21.50;56.50;;;;;;5094978;28;19915;-83
2023/07/06 01:48:05;;;;;;;0.10;0.10;;;21.50;56.40;;;;;;5112656;28;20066;-84
2023/07/06 01:51:28;;;;;;;0.10;0.10;;;21.50;56.40;;;;;;5111748;28;20484;-84
2023/07/06 01:54:18;;;;;;;0.55;0.40;;;21.50;56.50;;;;;;5113542;28;20526;-82
2023/07/06 01:57:05;;;;;;;0.20;0.20;;;21.50;56.60;;;;;;5095125;28;20400;-84
2023/07/06 01:59:35;;;;;;;1.00;0.32;;;21.50;56.60;;;;;;5113577;28;20031;-83
2023/07/06 02:02:07;;;;;;;0.10;0.10;;;21.40;56.50;;;;;;5113834;28;20404;-83
2023/07/06 02:04:35;;;;;;;0.15;0.15;;;21.40;56.40;;;;;;5099301;28;20038;-86
2023/07/06 02:07:05;;;;;;;0.10;0.10;;;21.40;56.30;;;;;;5098885;28;20035;-83
2023/07/06 02:09:31;;;;;;;0.10;0.10;;;21.50;56.30;;;;;;5098798;28;20083;-84
2023/07/06 02:11:57;;;;;;;;;;;21.50;56.30;;;;;;5099629;28;20035;-82
2023/07/06 02:14:23;;;;;;;0.10;0.10;;;21.50;56.30;;;;;;5099277;28;19916;-83
2023/07/06 02:16:50;;;;;;;;;;;21.50;56.30;;;;;;5116331;28;20081;-85
2023/07/06 02:19:20;;;;;;;0.28;0.20;;;21.50;56.10;;;;;;5116016;28;20338;-83
2023/07/06 02:21:49;;;;;;;0.20;0.20;;;21.50;55.80;;;;;;5115808;28;20042;-85
2023/07/06 02:24:17;;;;;;;0.35;0.13;;;21.50;55.80;;;;;;5115990;28;20036;-85
2023/07/06 02:26:45;;;;;;;0.13;0.13;;;21.50;55.90;;;;;;5115525;28;20110;-84
2023/07/06 02:29:11;;;;;;;0.65;0.38;;;21.50;55.90;;;;;;5115947;28;20100;-86
2023/07/06 02:31:37;;;;;;;0.20;0.20;;;21.50;56.10;;;;;;5098302;28;20036;-83
2023/07/06 02:34:03;;;;;;;;;;;21.50;56.00;;;;;;5117416;28;20396;-84
2023/07/06 02:36:29;;;;;;;0.63;0.30;;;21.50;55.90;;;;;;5115333;28;19943;-84
2023/07/06 02:38:56;;;;;;;;;;;21.50;55.90;;;;;;5098955;28;20036;-84
2023/07/06 02:41:22;;;;;;;0.75;0.65;;;21.60;55.80;;;;;;5115359;28;19957;-83
2023/07/06 02:43:48;;;;;;;;;;;21.50;55.70;;;;;;5115736;28;20053;-84
2023/07/06 02:46:19;;;;;;;0.20;0.17;;;21.60;55.70;;;;;;5116267;28;19911;-86
2023/07/06 02:48:46;;;;;;;0.20;0.20;;;21.60;55.50;;;;;;5099144;28;20108;-85
2023/07/06 02:51:13;;;;;;;0.30;0.30;;;21.60;55.50;;;;;;5097832;28;20028;-80
2023/07/06 02:53:39;;;;;;;0.10;0.10;;;21.50;55.60;;;;;;5098014;28;20089;-84
2023/07/06 02:56:05;;;;;;;;;;;21.50;55.80;;;;;;5115395;28;20484;-81
2023/07/06 02:58:31;;;;;;;0.10;0.10;;;21.50;55.80;;;;;;5098325;28;20089;-83
2023/07/06 03:00:57;;;;;;;;;;;21.50;55.70;;;;;;5115256;28;20031;-81
2023/07/06 03:03:26;;;;;;;0.60;0.30;;;21.50;55.80;;;;;;5114984;28;19919;-82
2023/07/06 03:05:53;;;;;;;0.20;0.20;;;21.50;55.90;;;;;;5114511;28;20020;-83
2023/07/06 03:08:20;;;;;;;0.20;0.20;;;21.50;55.60;;;;;;5115115;28;20040;-84
2023/07/06 03:10:47;;;;;;;1.60;0.47;;;21.50;55.20;;;;;;5097120;28;20079;-82
2023/07/06 03:13:15;;;;;;;0.38;0.17;;;21.50;55.60;;;;;;5115256;28;20089;-82
2023/07/06 03:15:41;;;;;;;0.10;0.10;;;21.50;55.60;;;;;;5097328;28;20032;-83
2023/07/06 03:18:08;;;;;;;1.17;0.60;;;21.60;55.60;;;;;;5097835;28;20035;-87
2023/07/06 03:23:21;;;;;;;0.10;0.10;;;21.60;55.50;;;;;;5114955;28;20405;-83
2023/07/06 03:28:35;;;;;;;0.15;0.15;;;21.60;55.20;;;;;;5114722;28;20046;-83
2023/07/06 03:31:01;;;;;;;0.22;0.17;;;21.50;55.10;;;;;;5114116;28;20039;-83
2023/07/06 03:33:28;;;;;;;0.28;0.28;;;21.60;55.20;;;;;;5114413;28;20084;-83
2023/07/06 03:35:55;;;;;;;0.10;0.10;;;21.60;55.20;;;;;;5113971;28;20035;-84
2023/07/06 03:38:21;;;;;;;0.10;0.10;;;21.60;55.20;;;;;;5097227;28;20036;-81
2023/07/06 03:41:06;;;;;;;0.10;0.10;;;21.60;54.70;;;;;;5113546;28;20032;-82
2023/07/06 03:43:34;;;;;;;1.33;0.68;;;21.60;55.10;;;;;;5115073;28;20453;-82
2023/07/06 03:46:03;;;;;;;0.52;0.40;;;21.60;55.00;;;;;;5096677;28;20048;-82
2023/07/06 03:48:29;;;;;;;0.20;0.20;;;21.70;55.10;;;;;;5114003;28;20028;-83
2023/07/06 03:51:02;;;;;;;3.10;1.35;;;21.70;55.00;;;;;;5113464;28;20031;-82
2023/07/06 03:53:29;;;;;;;0.10;0.10;;;21.70;54.90;;;;;;5097103;28;20504;-81
2023/07/06 03:55:54;;;;;;;;;;;21.70;55.00;;;;;;5096797;28;20023;-83
2023/07/06 03:58:21;;;;;;;0.10;0.10;;;21.80;54.90;;;;;;5113797;28;20358;-81
2023/07/06 04:00:47;;;;;;;1.15;0.80;;;21.80;55.10;;;;;;5113108;28;20115;-82
2023/07/06 04:03:14;;;;;;;0.10;0.10;;;21.70;55.00;;;;;;5113528;28;20035;-82
2023/07/06 04:05:46;;;;;;;0.17;0.17;;;21.70;54.20;;;;;;5113057;28;20081;-82
2023/07/06 04:08:18;;;;;;;0.10;0.10;;;21.80;54.70;;;;;;5097388;28;20162;-81
2023/07/06 04:10:44;;;;;;;0.20;0.20;;;21.90;54.60;;;;;;5112657;28;20052;-83
2023/07/06 04:13:13;;;;;;;0.15;0.15;;;21.90;54.50;;;;;;5096555;28;20407;-82
2023/07/06 04:16:00;;;;;;;0.10;0.10;;;22.00;54.20;;;;;;5112731;28;20058;-81
2023/07/06 04:18:26;;;;;;;;;;;22.00;53.90;;;;;;5113859;28;20032;-81
2023/07/06 04:20:53;;;;;;;0.10;0.10;;;22.10;53.90;;;;;;5112716;28;19915;-81
2023/07/06 04:23:19;;;;;;;0.17;0.17;;;22.10;53.70;;;;;;5113143;28;20038;-83
2023/07/06 04:25:45;;;;;;;0.40;0.40;;;22.10;53.60;;;;;;5114088;28;20028;-82
2023/07/06 04:28:12;;;;;;;;;;;22.10;53.50;;;;;;5113592;28;20042;-83
2023/07/06 04:30:43;;;;;;;0.22;0.20;;;22.10;53.50;;;;;;5084831;28;19916;-81
2023/07/06 04:33:16;;;;;;;0.10;0.10;;;22.10;53.50;;;;;;5092361;28;20031;-82
2023/07/06 04:35:42;;;;;;;0.50;0.50;;;22.10;53.60;;;;;;5091849;28;20059;-81
2023/07/06 04:38:11;;;;;;;5.93;0.63;;;22.10;53.70;;;;;;5092571;28;20456;-80
2023/07/06 04:40:41;;;;;;;0.25;0.20;;;22.00;53.70;;;;;;5091604;28;20028;-81
2023/07/06 04:43:08;;;;;;;0.52;0.40;;;22.00;53.70;;;;;;5092395;28;20116;-81
2023/07/06 04:45:36;;;;;;;0.30;0.30;;;22.00;53.80;;;;;;5091761;28;20111;-81
2023/07/06 04:48:05;;;;;;;0.20;0.20;;;22.00;53.80;;;;;;5075690;28;20039;-84
2023/07/06 04:50:31;;;;;;;0.17;0.17;;;22.00;53.70;;;;;;5091766;28;20036;-81
2023/07/06 04:53:01;;;;;;;0.20;0.20;;;22.10;53.90;;;;;;5075524;28;20115;-81
2023/07/06 04:55:30;;;;;;;0.35;0.20;;;22.10;53.70;;;;;;5091775;28;20042;-81
2023/07/06 04:57:59;;;;;;;0.10;0.10;;;22.10;53.50;;;;;;5075178;28;20024;-82
2023/07/06 05:00:29;;;;;;;0.13;0.13;;;22.20;53.40;;;;;;5074746;28;20032;-83
2023/07/06 05:03:15;;;;;;;0.20;0.17;;;22.30;53.30;;;;;;5091970;28;20480;-81
2023/07/06 05:05:45;;;;;;;0.30;0.30;;;22.40;53.20;;;;;;5091452;28;20108;-80
2023/07/06 05:08:35;;;;;;;0.10;0.10;;;22.40;53.00;;;;;;5075832;28;20071;-82
2023/07/06 05:11:05;;;;;;;0.20;0.20;;;22.50;52.80;;;;;;5091517;28;20051;-83
2023/07/06 05:13:32;;;;;;;0.30;0.30;;;22.60;52.70;;;;;;5092047;28;20047;-83
2023/07/06 05:15:58;;;;;;;0.20;0.20;;;22.60;52.40;;;;;;5091565;28;20435;-82
2023/07/06 05:18:26;;;;;;;0.47;0.32;;;22.70;52.50;;;;;;5092042;28;20115;-81
2023/07/06 05:20:56;;;;;;;0.25;0.20;;;22.70;52.40;;;;;;5091272;28;20058;-81
2023/07/06 05:23:28;;;;;;;0.20;0.20;;;22.70;52.20;;;;;;5092210;28;20075;-82
2023/07/06 05:25:56;;;;;;;0.20;0.20;;;22.80;52.20;;;;;;5091553;28;20063;-84
2023/07/06 05:28:23;;;;;;;0.75;0.68;;;22.80;52.10;;;;;;5092009;28;20032;-83
2023/07/06 05:30:50;;;;;;;0.35;0.20;;;22.80;52.00;;;;;;5074482;28;20040;-83
2023/07/06 05:33:17;;;;;;;0.30;0.22;;;22.90;52.10;;;;;;5091976;28;20484;-81
2023/07/06 05:35:43;;;;;;;0.10;0.10;;;23.00;52.00;;;;;;5091251;28;20086;-85
2023/07/06 05:38:10;;;;;;;0.50;0.50;;;23.10;51.90;;;;;;5078732;28;20028;-82
2023/07/06 05:40:38;;;;;;;0.20;0.20;;;23.20;51.50;;;;;;5095427;28;20389;-82
2023/07/06 05:43:05;;;;;;;0.20;0.20;;;23.30;51.30;;;;;;5079106;28;20397;-83
2023/07/06 05:45:31;;;;;;;0.10;0.10;;;23.30;50.80;;;;;;5095327;28;20392;-81
2023/07/06 05:47:57;;;;;;;0.20;0.20;;;23.40;51.10;;;;;;5097103;28;20064;-81
2023/07/06 05:50:23;;;;;;;0.20;0.20;;;23.40;51.30;;;;;;5078279;28;20040;-81
2023/07/06 05:52:50;;;;;;;4.38;0.90;;;23.30;51.30;;;;;;5078780;28;20036;-81
2023/07/06 05:55:16;;;;;;;0.30;0.30;;;23.20;50.80;;;;;;5095131;28;20055;-83
2023/07/06 05:57:45;;;;;;;0.52;0.30;;;23.20;51.70;;;;;;5078759;28;20032;-81
2023/07/06 06:00:13;;;;;;;0.10;0.10;;;23.20;51.50;;;;;;5094992;28;20032;-81
2023/07/06 06:02:42;;;;;;;0.20;0.20;;;23.20;51.40;;;;;;5095419;28;20123;-83
2023/07/06 06:05:08;;;;;;;0.10;0.10;;;23.20;51.30;;;;;;5096292;28;20105;-80
2023/07/06 06:07:34;;;;;;;0.10;0.10;;;23.30;51.30;;;;;;5095260;28;20032;-81
2023/07/06 06:12:48;;;;;;;0.10;0.10;;;23.30;51.10;;;;;;5095447;28;19920;-83
2023/07/06 06:15:15;;;;;;;0.10;0.10;;;23.40;51.10;;;;;;5095863;28;20119;-81
2023/07/06 06:17:44;;;;;;;0.20;0.20;;;23.40;51.10;;;;;;5096291;28;20043;-82
2023/07/06 06:20:11;;;;;;;0.10;0.10;;;23.40;51.30;;;;;;5094545;28;20032;-80
2023/07/06 06:22:37;;;;;;;0.32;0.32;;;23.50;51.30;;;;;;5078183;28;20036;-82
2023/07/06 06:25:05;;;;;;;1.17;0.15;;;23.50;50.70;;;;;;5094836;28;20062;-81
2023/07/06 06:27:32;;;;;;;0.35;0.22;;;23.70;50.40;;;;;;5095048;28;20127;-81
2023/07/06 06:29:58;;;;;;;0.10;0.10;;;23.70;51.00;;;;;;5094925;28;20021;-81
2023/07/06 06:32:29;;;;;;;0.20;0.20;;;23.80;50.90;;;;;;5096156;28;20404;-80
2023/07/06 06:34:55;;;;;;;0.30;0.30;;;23.90;51.00;;;;;;5078389;28;20432;-82
2023/07/06 06:37:21;;;;;;;0.10;0.10;;;24.00;50.70;;;;;;5096123;28;20492;-81
2023/07/06 06:39:47;;;;;;;;;;;24.00;50.40;;;;;;5095119;28;20043;-83
2023/07/06 06:42:13;;;;;;;0.10;0.10;;;24.10;50.50;;;;;;5077711;28;19919;-82
2023/07/06 06:44:41;;;;;;;0.32;0.30;;;24.10;50.10;;;;;;5096061;28;20111;-82
2023/07/06 06:47:08;;;;;;;0.47;0.47;;;24.20;50.00;;;;;;5077704;28;20056;-81
2023/07/06 06:49:34;;;;;;;0.30;0.20;;;24.30;49.40;;;;;;5076298;28;20036;-82
2023/07/06 06:52:01;;;;;;;0.20;0.20;;;24.40;49.80;;;;;;5094462;28;20036;-82
2023/07/06 06:54:30;;;;;;;0.20;0.20;;;24.50;49.50;;;;;;5094570;28;20043;-83
2023/07/06 06:56:56;;;;;;;0.20;0.20;;;24.50;49.20;;;;;;5077575;28;20388;-82
2023/07/06 06:59:23;;;;;;;0.35;0.28;;;24.50;49.00;;;;;;5077474;28;20097;-81
2023/07/06 07:04:33;;;;;;;0.65;0.47;;;24.70;49.00;;;;;;5095478;28;20063;-82
2023/07/06 07:07:03;;;;;;;;;;;24.70;48.40;;;;;;5094920;28;20024;-82
2023/07/06 07:09:29;;;;;;;0.20;0.20;;;24.70;48.80;;;;;;5077534;28;19935;-82
2023/07/06 07:11:55;;;;;;;0.28;0.20;;;24.70;47.50;;;;;;5093836;28;20064;-83
2023/07/06 07:14:22;;;;;;;;;;;24.80;46.80;;;;;;5094655;28;20043;-82
2023/07/06 07:16:48;;;;;;;;;;;24.80;47.30;;;;;;5095746;28;20362;-81
2023/07/06 07:19:16;;;;;;;1.45;0.28;;;25.00;47.00;;;;;;5094063;28;19924;-81
2023/07/06 07:21:42;;;;;;;0.15;0.15;;;25.10;45.90;;;;;;5076854;28;20047;-80
2023/07/06 07:24:08;;;;;;;1.00;0.45;;;25.20;45.00;;;;;;5093866;28;20040;-82
2023/07/06 07:26:35;;;;;;;0.20;0.20;;;25.30;45.00;;;;;;5093583;28;20100;-83
2023/07/06 07:29:02;;;;;;;0.13;0.13;;;25.50;44.10;;;;;;5077198;28;20101;-82
2023/07/06 07:31:28;;;;;;;4.28;0.45;;;25.80;44.50;;;;;;5093489;28;20024;-83
2023/07/06 07:33:55;;;;;;;0.90;0.30;;;26.10;43.70;;;;;;5093652;28;20047;-81
2023/07/06 07:36:22;;;;;;;0.20;0.20;;;26.30;43.60;;;;;;5093309;28;20052;-81
2023/07/06 07:38:50;;;;;;;0.17;0.17;;;26.40;42.40;;;;;;5076222;28;20130;-82
2023/07/06 07:41:18;;;;;;;0.70;0.65;;;26.50;42.20;;;;;;5093235;28;20024;-82
2023/07/06 07:43:47;;;;;;;0.75;0.60;;;26.60;41.80;;;;;;5093056;28;20479;-81
2023/07/06 07:46:17;;;;;;;0.43;0.30;;;26.70;41.60;;;;;;5092899;28;20085;-81
2023/07/06 07:48:46;;;;;;;0.30;0.30;;;26.80;41.20;;;;;;5093552;28;20039;-81
2023/07/06 07:51:32;;;;;;;0.17;0.17;;;26.90;40.60;;;;;;5092940;28;20564;-81
2023/07/06 07:53:58;;;;;;;0.20;0.20;;;27.00;41.30;;;;;;5093482;28;20036;-81
2023/07/06 07:56:26;;;;;;;1.65;0.82;;;27.10;40.20;;;;;;5075920;28;20519;-82
2023/07/06 07:58:52;;;;;;;0.63;0.52;;;27.30;40.00;;;;;;5075968;28;20044;-81
2023/07/06 08:01:38;;;;;;;0.40;0.40;;;27.50;39.40;;;;;;5092445;28;20028;-83
2023/07/06 08:04:04;;;;;;;0.60;0.60;;;27.60;39.70;;;;;;5076002;28;20043;-81
2023/07/06 08:06:31;;;;;;;0.38;0.35;;;27.70;39.30;;;;;;5092571;28;20084;-81
2023/07/06 08:08:57;;;;;;;0.30;0.30;;;27.70;38.50;;;;;;5075761;28;20501;-81
2023/07/06 08:11:24;;;;;;;1.60;1.20;;;27.60;38.70;;;;;;5075844;28;20048;-82
2023/07/06 08:13:53;;;;;;;0.35;0.35;;;27.60;38.70;;;;;;5075756;28;20028;-81
2023/07/06 08:16:21;;;;;;;0.30;0.30;;;27.70;38.70;;;;;;5075549;28;20028;-83
2023/07/06 08:18:49;;;;;;;0.52;0.52;;;27.80;38.20;;;;;;5092894;28;20070;-83
2023/07/06 08:21:15;;;;;;;0.63;0.30;;;27.80;38.30;;;;;;5075450;28;20043;-84
2023/07/06 08:23:49;;;;;;;0.32;0.32;;;27.80;38.30;;;;;;5094115;28;20068;-81
2023/07/06 08:26:15;;;;;;;0.20;0.20;;;27.80;38.50;;;;;;5092350;28;20062;-82
2023/07/06 08:28:41;;;;;;;0.13;0.13;;;28.00;39.10;;;;;;5075982;28;20046;-82
2023/07/06 08:31:26;;;;;;;0.20;0.20;;;28.00;39.20;;;;;;5092356;28;20054;-80
2023/07/06 08:33:53;;;;;;;0.25;0.25;;;28.00;39.20;;;;;;5093672;28;20036;-82
2023/07/06 08:36:20;;;;;;;0.20;0.20;;;28.10;38.90;;;;;;5093673;28;20032;-81
2023/07/06 08:38:46;;;;;;;0.40;0.40;;;28.10;38.70;;;;;;5092582;28;20111;-81
2023/07/06 08:41:55;;;;;;;0.20;0.20;;;28.10;39.10;;;;;;5092116;28;20081;-83
2023/07/06 08:44:21;;;;;;;0.30;0.30;;;28.00;38.60;;;;;;5093441;28;20040;-81
2023/07/06 08:46:49;;;;;;;0.20;0.20;;;28.20;38.30;;;;;;5093599;28;20030;-81
2023/07/06 08:49:35;;;;;;;0.32;0.30;;;28.30;38.30;;;;;;5075465;28;20036;-81
2023/07/06 08:52:05;;;;;;;0.98;0.75;;;28.40;38.50;;;;;;5092059;28;20040;-82
2023/07/06 08:54:36;;;;;;;0.93;0.70;;;28.50;38.20;;;;;;5075309;28;20044;-80
2023/07/06 08:57:15;;;;;;;0.10;0.10;;;28.80;37.20;;;;;;5092247;28;20088;-84
2023/07/06 08:59:48;;;;;;;0.52;0.47;;;29.10;37.80;;;;;;5092100;28;20089;-82
2023/07/06 09:02:34;;;;;;;0.35;0.35;;;29.30;37.20;;;;;;5075685;28;20035;-82
2023/07/06 09:05:12;;;;;;;2.22;1.02;;;29.30;36.70;;;;;;5075629;28;20105;-81
2023/07/06 09:07:42;;;;;;;0.88;0.52;;;29.40;36.00;;;;;;5091983;28;20044;-81
2023/07/06 09:10:28;;;;;;;1.45;0.82;;;29.60;35.30;;;;;;5091465;28;20104;-83
2023/07/06 09:13:12;;;;;;;0.40;0.40;;;29.80;36.20;;;;;;5074820;28;20522;-84
2023/07/06 09:15:38;;;;;;;0.20;0.17;;;30.30;35.90;;;;;;5091393;28;20032;-82
2023/07/06 09:18:05;;;;;;;0.30;0.30;;;30.60;35.30;;;;;;5091787;28;20062;-82
2023/07/06 09:20:35;;;;;;;0.30;0.30;;;30.80;34.10;;;;;;5091096;28;20036;-81
2023/07/06 09:23:05;;;;;;;0.77;0.38;;;30.80;33.80;;;;;;5093050;28;20040;-81
2023/07/06 09:25:53;;;;;;;0.28;0.25;;;31.00;34.20;;;;;;5091139;28;20036;-82
2023/07/06 09:28:39;;;;;;;0.20;0.20;;;31.40;33.80;;;;;;5091681;28;20042;-81
2023/07/06 09:31:25;;;;;;;0.52;0.52;;;32.10;33.00;;;;;;5092457;28;20025;-82
2023/07/06 09:33:55;;;;;;;0.60;0.60;;;32.60;31.30;;;;;;5074741;28;20059;-82
2023/07/06 09:36:25;;;;;;;0.75;0.65;;;32.80;31.20;;;;;;5074748;28;20039;-81
2023/07/06 09:38:52;;;;;;;0.25;0.25;;;32.60;31.00;;;;;;5074987;28;20454;-82
2023/07/06 09:41:43;;;;;;;1.13;0.95;;;32.30;31.10;;;;;;5091318;28;20029;-82
2023/07/06 09:44:19;;;;;;;0.20;0.20;;;32.20;32.10;;;;;;5091360;28;20420;-81
2023/07/06 09:46:45;;;;;;;0.20;0.20;;;32.10;31.80;;;;;;5091020;28;20107;-80
2023/07/06 09:49:18;;;;;;;0.20;0.20;;;32.80;30.50;;;;;;5091511;28;20044;-83
2023/07/06 09:52:11;;;;;;;0.30;0.30;;;33.50;30.20;;;;;;5091329;28;20484;-85
2023/07/06 09:55:09;;;;;;;0.28;0.28;;;33.80;29.20;;;;;;5091583;28;20400;-84
2023/07/06 09:57:36;;;;;;;0.20;0.20;;;33.70;29.50;;;;;;5091507;28;20033;-81
2023/07/06 10:00:03;;;;;;;0.52;0.52;;;33.20;29.10;;;;;;5091166;28;20032;-81
2023/07/06 10:03:08;;;;;;;0.22;0.22;;;32.80;29.10;;;;;;5092911;28;20316;-82
2023/07/06 10:05:58;;;;;;;0.30;0.30;;;32.70;29.90;;;;;;5090849;28;20036;-81
2023/07/06 10:09:04;;;;;;;0.38;0.38;;;32.70;30.20;;;;;;5091572;28;20043;-82
2023/07/06 10:12:12;;;;;;;0.65;0.40;;;33.90;29.40;;;;;;5073909;28;20370;-83
2023/07/06 10:15:00;;;;;;;0.30;0.30;;;34.70;28.70;;;;;;5091493;28;20093;-82
2023/07/06 10:17:50;;;;;;;0.40;0.40;;;35.00;28.30;;;;;;5091195;28;20117;-84
2023/07/06 10:20:54;;;;;;;0.98;0.57;;;35.40;28.00;;;;;;5074114;28;20028;-85
2023/07/06 10:23:26;;;;;;;0.68;0.57;;;35.80;27.40;;;;;;5094735;28;20040;-84
2023/07/06 10:26:32;;;;;;;0.60;0.60;;;35.50;27.50;;;;;;5094656;28;20412;-84
2023/07/06 10:29:16;;;;;;;0.90;0.68;;;35.70;27.80;;;;;;5078588;28;20039;-82
2023/07/06 10:32:06;;;;;;;0.20;0.20;;;35.80;27.50;;;;;;5094673;28;20093;-83
2023/07/06 10:34:56;;;;;;;0.40;0.40;;;36.80;26.80;;;;;;5095118;28;20036;-84
2023/07/06 10:37:24;;;;;;;0.40;0.40;;;38.20;25.60;;;;;;5078378;28;20036;-84
2023/07/06 10:40:28;;;;;;;2.17;0.77;;;39.30;24.00;;;;;;5095006;28;20136;-83
2023/07/06 10:43:13;;;;;;;0.60;0.60;;;40.40;23.40;;;;;;5077956;28;20060;-82
2023/07/06 10:45:59;;;;;;;1.73;0.45;;;41.50;22.80;;;;;;5095657;28;20530;-87
2023/07/06 10:48:25;;;;;;;;;;;42.10;22.40;;;;;;5095736;28;20037;-87
2023/07/06 10:51:16;;;;;;;;;;;42.80;21.40;;;;;;5095142;28;19930;-90
2023/07/06 10:53:49;;;;;;;0.65;0.65;;;43.70;20.60;;;;;;5078296;28;19927;-87
2023/07/06 10:57:12;;;;;;;0.60;0.60;;;44.30;19.30;;;;;;5077906;28;20292;-88
2023/07/06 10:59:42;;;;;;;1.00;0.82;;;44.90;18.50;;;;;;5096187;28;20529;-87
2023/07/06 11:02:47;;;;;;;0.73;0.73;;;45.40;18.60;;;;;;5094899;28;20647;-86
2023/07/06 11:05:32;;;;;;;1.15;1.05;;;46.20;17.70;;;;;;5094456;28;20036;-86
2023/07/06 11:08:02;;;;;;;1.40;0.80;;;46.70;16.80;;;;;;5095194;28;20070;-89
2023/07/06 11:11:12;;;;;;;1.10;1.00;;;47.20;16.70;;;;;;5077292;28;20131;-86
2023/07/06 11:13:51;;;;;;;0.98;0.93;;;47.70;16.40;;;;;;5077831;28;20086;-85
2023/07/06 11:17:13;;;;;;;1.30;1.20;;;48.20;16.10;;;;;;5086919;28;20048;-86
2023/07/06 11:20:23;;;;;;;1.50;1.20;;;48.50;15.30;;;;;;5115526;28;20028;-85
2023/07/06 11:22:55;;;;;;;0.90;0.90;;;49.20;15.30;;;;;;5115392;28;20039;-88
2023/07/06 11:25:22;;;;;;;1.20;1.10;;;49.80;14.80;;;;;;5097135;28;20067;-85
2023/07/06 11:27:53;;;;;;;1.63;1.52;;;49.70;14.40;;;;;;5097516;28;20036;-84
2023/07/06 11:30:33;;;;;;;1.20;1.10;;;49.40;15.00;;;;;;5114360;28;20058;-85
2023/07/06 11:33:55;;;;;;;1.88;1.67;;;49.50;14.60;;;;;;5114817;28;20110;-84
2023/07/06 11:37:06;;;;;;;1.13;1.05;;;49.20;14.50;;;;;;5114442;28;20039;-84
2023/07/06 11:40:10;;;;;;;2.45;1.35;;;48.70;14.50;;;;;;5115930;28;20032;-86
2023/07/06 11:43:02;;;;;;;1.30;1.20;;;48.30;14.70;;;;;;5115756;28;20110;-83
2023/07/06 11:45:45;;;;;;;1.40;1.30;;;48.20;13.80;;;;;;5113867;28;20039;-87
2023/07/06 11:48:37;;;;;;;1.30;1.20;;;47.80;13.80;;;;;;5097646;28;20027;-86
2023/07/06 11:51:04;;;;;;;1.27;1.17;;;48.70;14.40;;;;;;5114066;28;20361;-84
2023/07/06 11:53:44;;;;;;;1.20;1.10;;;49.20;13.20;;;;;;5114435;28;20049;-84
2023/07/06 12:02:16;;;;;;;1.38;1.27;;;50.50;13.40;;;;;;5114255;28;20037;-86
2023/07/06 12:04:46;;;;;;;2.08;1.88;;;49.70;13.70;;;;;;5096831;28;20040;-85
2023/07/06 12:07:35;;;;;;;1.50;1.40;;;49.30;14.10;;;;;;5113750;28;20040;-85
2023/07/06 12:10:06;;;;;;;1.50;1.40;;;49.90;14.00;;;;;;5114576;28;20047;-85
2023/07/06 12:12:35;;;;;;;1.50;1.40;;;49.60;14.10;;;;;;5113625;28;20476;-86
2023/07/06 12:15:04;;;;;;;1.60;1.50;;;48.10;14.50;;;;;;5097265;28;20063;-86
2023/07/06 12:17:55;;;;;;;1.50;1.40;;;46.30;15.70;;;;;;5113508;28;20480;-87
2023/07/06 12:20:25;;;;;;;1.60;1.50;;;44.90;16.40;;;;;;5096639;28;20118;-85
2023/07/06 12:23:11;;;;;;;1.38;1.23;;;44.00;17.20;;;;;;5096986;28;20043;-89
2023/07/06 12:25:41;;;;;;;1.55;1.05;;;43.00;17.70;;;;;;5096341;28;20445;-87
2023/07/06 12:28:12;;;;;;;0.80;0.80;;;42.20;18.20;;;;;;5114182;28;20031;-85
2023/07/06 12:30:39;;;;;;;1.15;1.05;;;41.60;18.60;;;;;;5096165;28;20106;-84
2023/07/06 12:33:08;;;;;;;0.65;0.65;;;41.10;19.40;;;;;;5096340;28;20042;-90
2023/07/06 12:35:35;;;;;;;1.08;1.00;;;40.80;19.80;;;;;;5096434;28;20070;-90
2023/07/06 12:38:23;;;;;;;1.50;1.13;;;40.90;19.50;;;;;;5113798;28;20115;-90
2023/07/06 12:40:49;;;;;;;0.93;0.88;;;41.40;19.90;;;;;;5095810;28;20051;-88
2023/07/06 12:43:35;;;;;;;1.15;0.98;;;43.30;18.70;;;;;;5114286;28;20035;-83
2023/07/06 12:46:03;;;;;;;1.50;1.20;;;44.30;17.10;;;;;;5114038;28;20182;-84
2023/07/06 12:48:29;;;;;;;1.02;0.93;;;43.70;17.40;;;;;;5113348;28;20035;-88
2023/07/06 12:50:56;;;;;;;1.35;1.08;;;42.80;17.80;;;;;;5095588;28;20024;-88
2023/07/06 12:53:41;;;;;;;0.60;0.60;;;41.90;18.60;;;;;;5113432;28;20064;-88
2023/07/06 12:56:13;;;;;;;0.80;0.80;;;40.80;19.00;;;;;;5095852;28;20028;-89
2023/07/06 12:58:47;;;;;;;0.73;0.68;;;40.00;20.00;;;;;;5113475;28;20123;-88
2023/07/06 13:04:22;;;;;;;1.65;0.93;;;38.80;21.00;;;;;;5113315;28;20068;-82
2023/07/06 13:07:08;;;;;;;0.70;0.70;;;38.20;21.30;;;;;;5112757;28;20439;-82
2023/07/06 13:09:34;;;;;;;0.93;0.55;;;37.80;21.70;;;;;;5095425;28;20561;-82
2023/07/06 13:12:09;;;;;;;1.15;0.98;;;37.40;22.40;;;;;;5112538;28;20110;-82
2023/07/06 13:14:59;;;;;;;0.95;0.90;;;36.90;22.50;;;;;;5112603;28;20404;-89
2023/07/06 13:17:27;;;;;;;1.35;0.98;;;36.60;23.30;;;;;;5112258;28;20118;-82
2023/07/06 13:19:56;;;;;;;0.47;0.47;;;36.30;23.60;;;;;;5113603;28;20040;-82
2023/07/06 13:22:22;;;;;;;0.50;0.50;;;35.90;24.10;;;;;;5112770;28;20480;-89
2023/07/06 13:24:49;;;;;;;0.50;0.50;;;35.60;24.20;;;;;;5112694;28;20381;-89
2023/07/06 13:27:19;;;;;;;0.60;0.60;;;35.40;25.00;;;;;;5095625;28;20495;-82
2023/07/06 13:29:46;;;;;;;0.50;0.50;;;35.20;25.50;;;;;;5112543;28;20038;-85
2023/07/06 13:32:16;;;;;;;0.93;0.82;;;35.00;25.30;;;;;;5095547;28;20067;-88
2023/07/06 13:34:43;;;;;;;1.20;0.82;;;34.90;25.90;;;;;;5112388;28;20057;-81
2023/07/06 13:37:29;;;;;;;1.00;0.50;;;34.80;26.20;;;;;;5112289;28;20106;-87
2023/07/06 13:39:59;;;;;;;0.50;0.50;;;34.70;26.00;;;;;;5095537;28;20031;-81
2023/07/06 13:42:28;;;;;;;0.65;0.65;;;34.60;25.80;;;;;;5112049;28;20451;-87
2023/07/06 13:44:55;;;;;;;0.43;0.43;;;34.50;26.10;;;;;;5112120;28;20039;-87
2023/07/06 13:47:22;;;;;;;0.50;0.50;;;34.40;26.10;;;;;;5112237;28;20034;-86
2023/07/06 13:49:49;;;;;;;1.65;1.23;;;34.30;26.30;;;;;;5112467;28;20089;-87